Time;durP1;ratioP1;P1;durP2;ratioP2;P2;SDS_P1;SDS_P2;PMS_P1;PMS_P2;Temp;Humidity;BMP_temperature;BMP_pressure;BME280_temperature;BME280_humidity;BME280_pressure;Samples;Min_cycle;Max_cycle;Signal;HPM_P1;HPM_P2
2021/10/09 00:00:05;;;;;;;19.30;10.32;;;;;;;8.47;100.00;102078.38;4867866;29;20040;-71
2021/10/09 00:02:51;;;;;;;23.08;10.02;;;;;;;8.52;100.00;102066.28;4881400;29;20442;-71
2021/10/09 00:05:36;;;;;;;25.08;10.82;;;;;;;8.41;100.00;102067.88;4881233;29;20085;-70
2021/10/09 00:08:22;;;;;;;22.85;10.30;;;;;;;8.35;100.00;102071.28;4881508;29;20085;-70
2021/10/09 00:11:15;;;;;;;23.50;10.23;;;;;;;8.43;100.00;102072.25;4881754;29;20044;-70
2021/10/09 00:14:02;;;;;;;26.73;10.40;;;;;;;8.35;100.00;102075.63;4881297;29;20037;-71
2021/10/09 00:16:48;;;;;;;18.80;11.05;;;;;;;8.20;100.00;102059.72;4881318;29;20040;-70
2021/10/09 00:19:34;;;;;;;23.67;10.38;;;;;;;8.25;100.00;102065.91;4883657;29;20029;-72
2021/10/09 00:22:19;;;;;;;24.70;11.18;;;;;;;8.35;100.00;102070.38;4885004;29;20025;-70
2021/10/09 00:25:07;;;;;;;22.90;10.68;;;;;;;8.31;100.00;102065.97;4884309;29;20029;-70
2021/10/09 00:27:52;;;;;;;29.00;12.10;;;;;;;8.27;100.00;102058.97;4885475;29;20029;-70
2021/10/09 00:30:38;;;;;;;24.92;12.32;;;;;;;8.32;100.00;102065.16;4884228;29;20032;-71
2021/10/09 00:33:24;;;;;;;23.20;10.88;;;;;;;8.32;100.00;102058.19;4884880;29;20065;-70
2021/10/09 00:36:10;;;;;;;20.08;10.63;;;;;;;8.35;100.00;102057.34;4883917;29;20032;-72
2021/10/09 00:38:56;;;;;;;25.45;11.02;;;;;;;8.42;100.00;102065.28;4871066;29;20407;-70
2021/10/09 00:41:43;;;;;;;25.75;11.23;;;;;;;8.15;100.00;102061.38;4884104;29;20408;-71
2021/10/09 00:44:28;;;;;;;28.27;11.95;;;;;;;8.16;100.00;102063.16;4884939;29;20029;-70
2021/10/09 00:47:15;;;;;;;22.08;12.10;;;;;;;8.29;100.00;102060.78;4883916;29;20021;-70
2021/10/09 00:50:01;;;;;;;27.65;12.40;;;;;;;8.36;100.00;102059.13;4884480;29;20096;-70
2021/10/09 00:52:49;;;;;;;28.48;11.93;;;;;;;8.19;100.00;102056.25;4885070;29;20061;-69
2021/10/09 00:55:35;;;;;;;25.88;12.40;;;;;;;8.35;100.00;102054.72;4884412;29;20079;-71
2021/10/09 00:58:22;;;;;;;24.95;12.60;;;;;;;8.50;100.00;102054.91;4870976;29;20032;-70
2021/10/09 01:01:08;;;;;;;25.90;12.95;;;;;;;8.31;100.00;102047.72;4883586;29;20029;-69
2021/10/09 01:03:56;;;;;;;25.27;11.60;;;;;;;8.32;100.00;102047.72;4884413;29;20037;-70
2021/10/09 01:06:41;;;;;;;25.52;12.50;;;;;;;8.34;100.00;102052.97;4883988;29;20053;-70
2021/10/09 01:09:27;;;;;;;26.65;12.18;;;;;;;8.29;100.00;102045.09;4884329;29;20362;-71
2021/10/09 01:12:14;;;;;;;35.20;17.08;;;;;;;8.41;100.00;102037.41;4884033;29;20123;-72
2021/10/09 01:15:17;;;;;;;24.40;13.38;;;;;;;8.34;100.00;102043.44;4884314;29;20060;-71
2021/10/09 01:18:10;;;;;;;22.55;12.65;;;;;;;8.41;100.00;102033.94;4884051;29;20070;-70
2021/10/09 01:21:01;;;;;;;25.85;13.13;;;;;;;8.37;100.00;102032.13;4884318;29;20032;-70
2021/10/09 01:23:49;;;;;;;27.77;12.85;;;;;;;8.43;100.00;102034.81;4870640;29;20530;-70
2021/10/09 01:26:35;;;;;;;22.27;12.23;;;;;;;8.36;100.00;102033.00;4883316;29;20037;-71
2021/10/09 01:29:21;;;;;;;28.98;12.60;;;;;;;8.40;100.00;102040.00;4883993;29;20352;-70
2021/10/09 01:32:07;;;;;;;26.17;12.32;;;;;;;8.34;100.00;102038.19;4883555;29;20044;-70
2021/10/09 01:34:53;;;;;;;27.50;13.40;;;;;;;8.52;100.00;102035.78;4884194;29;20101;-69
2021/10/09 01:37:43;;;;;;;26.70;12.30;;;;;;;8.35;100.00;102039.94;4869813;29;20029;-71
2021/10/09 01:40:29;;;;;;;25.55;12.73;;;;;;;8.38;100.00;102034.78;4883696;29;20069;-70
2021/10/09 01:43:17;;;;;;;24.58;13.10;;;;;;;8.39;100.00;102033.00;4883358;29;20454;-71
2021/10/09 01:46:03;;;;;;;29.30;14.02;;;;;;;8.34;100.00;102037.31;4883356;29;20052;-69
2021/10/09 01:48:48;;;;;;;22.30;11.80;;;;;;;8.36;100.00;102033.00;4883691;29;20032;-72
2021/10/09 01:51:35;;;;;;;28.55;12.27;;;;;;;8.36;100.00;102036.47;4883547;29;20024;-73
2021/10/09 01:54:20;;;;;;;23.80;12.55;;;;;;;8.49;100.00;102037.50;4870025;29;20477;-73
2021/10/09 01:57:06;;;;;;;24.95;11.80;;;;;;;8.29;100.00;102034.66;4883132;29;20037;-72
2021/10/09 01:59:52;;;;;;;24.00;11.73;;;;;;;8.17;100.00;102038.81;4883105;29;20128;-72
2021/10/09 02:02:38;;;;;;;29.42;13.43;;;;;;;8.32;100.00;102041.66;4883838;29;20093;-72
2021/10/09 02:05:23;;;;;;;25.90;12.45;;;;;;;8.30;100.00;102038.13;4870204;29;20435;-72
2021/10/09 02:08:09;;;;;;;24.77;12.77;;;;;;;8.52;100.00;102042.78;4883009;29;20048;-71
2021/10/09 02:11:01;;;;;;;26.45;11.75;;;;;;;8.30;100.00;102033.78;4883905;29;20076;-70
2021/10/09 02:17:53;;;;;;;24.65;12.55;;;;;;;8.25;100.00;102037.19;4882797;29;20352;-71
2021/10/09 02:26:05;;;;;;;26.60;12.10;;;;;;;8.30;100.00;102048.56;4882124;29;20029;-70
2021/10/09 02:28:51;;;;;;;32.30;14.35;;;;;;;8.59;100.00;102055.03;4882987;29;20037;-71
2021/10/09 02:31:37;;;;;;;23.52;12.07;;;;;;;8.45;100.00;102051.38;4882084;29;20082;-72
2021/10/09 02:34:22;;;;;;;27.08;12.65;;;;;;;8.36;100.00;102051.28;4883302;29;20035;-70
2021/10/09 02:37:08;;;;;;;28.52;12.02;;;;;;;8.26;100.00;102045.06;4881375;29;20048;-71
2021/10/09 02:39:54;;;;;;;26.55;12.68;;;;;;;8.48;100.00;102041.84;4882267;29;20351;-70
2021/10/09 02:42:40;;;;;;;23.67;11.55;;;;;;;8.38;100.00;102039.09;4881176;29;20089;-70
2021/10/09 02:45:26;;;;;;;29.67;12.82;;;;;;;8.46;100.00;102037.47;4881845;29;20357;-70
2021/10/09 02:48:15;;;;;;;26.52;13.02;;;;;;;8.27;100.00;102045.91;4881915;29;20279;-70
2021/10/09 02:51:01;;;;;;;28.90;12.50;;;;;;;8.40;100.00;102040.00;4882872;29;20036;-73
2021/10/09 02:53:47;;;;;;;27.42;14.02;;;;;;;8.52;100.00;102043.63;4884096;29;20095;-71
2021/10/09 02:56:33;;;;;;;21.27;11.88;;;;;;;8.63;100.00;102042.03;4883888;29;20033;-71
2021/10/09 02:59:19;;;;;;;23.15;12.40;;;;;;;8.30;100.00;102045.97;4883777;29;20040;-73
2021/10/09 03:02:04;;;;;;;23.00;12.65;;;;;;;8.14;100.00;102044.88;4883585;29;20029;-73
2021/10/09 03:04:50;;;;;;;25.75;12.13;;;;;;;8.31;100.00;102050.31;4884197;29;20025;-72
2021/10/09 03:07:40;;;;;;;21.88;12.32;;;;;;;8.24;100.00;102051.13;4869976;29;20048;-71
2021/10/09 03:10:26;;;;;;;28.15;12.15;;;;;;;8.45;100.00;102054.00;4882609;29;20128;-71
2021/10/09 03:13:12;;;;;;;22.13;11.73;;;;;;;8.13;100.00;102058.78;4881558;29;20371;-71
2021/10/09 03:15:58;;;;;;;21.05;12.27;;;;;;;8.28;100.00;102045.94;4882265;29;20392;-70
2021/10/09 03:18:44;;;;;;;25.33;12.40;;;;;;;8.29;100.00;102050.34;4868283;29;20052;-71
2021/10/09 03:21:29;;;;;;;27.05;11.18;;;;;;;8.25;100.00;102045.94;4882405;29;20088;-70
2021/10/09 03:24:15;;;;;;;23.65;12.05;;;;;;;8.35;100.00;102042.56;4881919;29;20088;-71
2021/10/09 03:27:01;;;;;;;23.88;11.43;;;;;;;8.13;100.00;102045.72;4881870;29;20092;-70
2021/10/09 03:29:47;;;;;;;21.33;12.40;;;;;;;8.26;100.00;102032.00;4881382;29;20040;-71
2021/10/09 03:32:33;;;;;;;22.48;12.18;;;;;;;8.47;100.00;102047.94;4881833;29;20040;-71
2021/10/09 03:35:19;;;;;;;25.98;13.38;;;;;;;8.33;100.00;102044.25;4868198;29;20037;-71
2021/10/09 03:38:05;;;;;;;26.73;12.40;;;;;;;8.15;100.00;102044.00;4881092;29;20121;-71
2021/10/09 03:40:57;;;;;;;26.92;12.98;;;;;;;8.19;100.00;102047.50;4881904;29;20037;-72
2021/10/09 03:43:43;;;;;;;24.27;13.00;;;;;;;8.24;100.00;102044.16;4881630;29;20470;-71
2021/10/09 03:46:31;;;;;;;24.88;12.25;;;;;;;8.20;100.00;102046.69;4881865;29;20346;-72
2021/10/09 03:49:35;;;;;;;23.35;12.63;;;;;;;8.27;100.00;102045.91;4881043;29;20061;-71
2021/10/09 03:52:42;;;;;;;22.40;12.23;;;;;;;8.23;100.00;102051.94;4881091;29;20032;-70
2021/10/09 03:55:27;;;;;;;23.27;12.68;;;;;;;8.34;100.00;102051.25;4884706;29;20024;-69
2021/10/09 03:58:13;;;;;;;23.05;11.98;;;;;;;8.37;100.00;102050.41;4885738;29;20041;-70
2021/10/09 04:00:58;;;;;;;29.73;15.85;;;;;;;8.40;100.00;102050.47;4871754;29;20033;-72
2021/10/09 04:03:44;;;;;;;19.85;11.88;;;;;;;8.11;100.00;102057.88;4885930;29;20111;-71
2021/10/09 04:06:30;;;;;;;26.63;12.65;;;;;;;8.21;100.00;102061.50;4884845;29;20462;-71
2021/10/09 04:09:16;;;;;;;24.63;12.07;;;;;;;8.04;100.00;102065.59;4885539;29;20036;-71
2021/10/09 04:12:02;;;;;;;26.95;12.23;;;;;;;8.10;100.00;102060.44;4885108;29;20099;-71
2021/10/09 04:14:48;;;;;;;23.42;12.85;;;;;;;8.16;100.00;102057.94;4885229;29;20041;-70
2021/10/09 04:17:34;;;;;;;24.65;12.45;;;;;;;8.20;100.00;102067.56;4884376;29;20482;-70
2021/10/09 04:20:19;;;;;;;23.35;12.00;;;;;;;8.10;100.00;102068.28;4885131;29;20041;-71
2021/10/09 04:23:05;;;;;;;20.48;11.90;;;;;;;8.11;100.00;102068.31;4885758;29;20025;-71
2021/10/09 04:25:51;;;;;;;25.27;12.30;;;;;;;8.04;100.00;102073.44;4884201;29;20025;-70
2021/10/09 04:28:37;;;;;;;23.60;13.07;;;;;;;7.99;100.00;102077.69;4885193;29;20025;-70
2021/10/09 04:31:22;;;;;;;23.50;12.30;;;;;;;7.86;100.00;102080.97;4871087;29;20032;-70
2021/10/09 04:34:08;;;;;;;27.63;13.30;;;;;;;8.19;100.00;102077.13;4870946;29;20033;-71
2021/10/09 04:36:55;;;;;;;21.08;12.73;;;;;;;8.14;100.00;102081.41;4884681;29;20096;-70
2021/10/09 04:39:41;;;;;;;21.35;12.55;;;;;;;8.16;100.00;102091.88;4885189;29;20351;-72
2021/10/09 04:42:27;;;;;;;22.13;12.40;;;;;;;8.07;100.00;102086.50;4871029;29;20036;-70
2021/10/09 04:45:12;;;;;;;25.70;12.93;;;;;;;7.85;100.00;102084.44;4884928;29;20447;-71
2021/10/09 04:48:02;;;;;;;24.73;13.65;;;;;;;8.14;100.00;102084.03;4884944;29;20165;-71
2021/10/09 04:50:47;;;;;;;32.50;16.60;;;;;;;7.97;100.00;102092.44;4871345;29;20033;-70
2021/10/09 04:53:33;;;;;;;29.40;13.65;;;;;;;7.99;100.00;102095.94;4884693;29;20096;-70
2021/10/09 04:56:19;;;;;;;23.70;14.43;;;;;;;8.13;100.00;102091.81;4883854;29;20375;-71
2021/10/09 04:59:04;;;;;;;25.92;13.48;;;;;;;7.89;100.00;102112.34;4884642;29;20111;-72
2021/10/09 05:01:50;;;;;;;26.55;13.68;;;;;;;7.99;100.00;102104.66;4884254;29;20408;-71
2021/10/09 05:04:36;;;;;;;26.17;13.65;;;;;;;7.93;100.00;102108.91;4884362;29;20029;-71
2021/10/09 05:07:22;;;;;;;25.55;14.35;;;;;;;7.98;100.00;102117.69;4884090;29;20068;-70
2021/10/09 05:10:09;;;;;;;33.90;14.18;;;;;;;7.86;100.00;102115.78;4884047;29;20048;-70
2021/10/09 05:12:55;;;;;;;29.38;14.15;;;;;;;8.01;100.00;102120.34;4884024;29;20037;-70
2021/10/09 05:15:42;;;;;;;27.63;14.55;;;;;;;7.99;100.00;102114.22;4884356;29;20029;-71
2021/10/09 05:18:28;;;;;;;25.30;14.68;;;;;;;7.94;100.00;102113.28;4884163;29;20451;-70
2021/10/09 05:21:14;;;;;;;30.20;14.65;;;;;;;7.93;100.00;102125.47;4883454;29;20029;-71
2021/10/09 05:24:00;;;;;;;25.73;13.82;;;;;;;7.85;100.00;102115.75;4883445;29;20029;-71
2021/10/09 05:26:45;;;;;;;26.90;14.00;;;;;;;7.99;100.00;102125.53;4883879;29;20534;-70
2021/10/09 05:29:31;;;;;;;25.42;13.77;;;;;;;7.96;100.00;102114.19;4884377;29;20068;-70
2021/10/09 05:32:22;;;;;;;27.58;14.70;;;;;;;7.97;100.00;102116.84;4883935;29;20029;-71
2021/10/09 05:35:08;;;;;;;27.63;13.70;;;;;;;7.99;100.00;102122.03;4884190;29;20064;-71
2021/10/09 05:37:53;;;;;;;31.00;13.68;;;;;;;8.10;100.00;102118.75;4869905;29;20056;-70
2021/10/09 05:40:39;;;;;;;27.88;13.15;;;;;;;8.42;100.00;102117.53;4884283;29;20044;-70
2021/10/09 05:43:26;;;;;;;26.90;14.27;;;;;;;8.18;100.00;102124.97;4869323;29;20029;-70
2021/10/09 05:46:12;;;;;;;27.08;13.15;;;;;;;8.27;100.00;102119.03;4870170;29;20033;-70
2021/10/09 05:48:58;;;;;;;23.98;12.93;;;;;;;8.51;100.00;102132.41;4883490;29;20458;-72
2021/10/09 05:55:01;;;;;;;26.98;12.65;;;;;;;8.27;100.00;102132.06;4882792;29;20124;-70
2021/10/09 07:01:30;;;;;;;29.27;15.07;;;;;;;8.64;100.00;102176.16;4881639;29;20116;-71
2021/10/09 07:04:16;;;;;;;29.88;14.75;;;;;;;8.68;100.00;102167.50;4882103;29;20470;-71
2021/10/09 07:07:05;;;;;;;34.75;15.63;;;;;;;9.09;100.00;102171.50;4881735;29;20057;-71
2021/10/09 07:09:50;;;;;;;26.88;14.35;;;;;;;8.76;100.00;102173.72;4881746;29;20028;-70
2021/10/09 07:12:36;;;;;;;30.00;15.82;;;;;;;8.62;100.00;102183.97;4882076;29;20033;-71
2021/10/09 07:15:22;;;;;;;25.10;14.93;;;;;;;8.75;100.00;102175.44;4881456;29;20048;-70
2021/10/09 07:18:10;;;;;;;24.45;14.65;;;;;;;9.09;100.00;102188.03;4881372;29;20114;-69
2021/10/09 07:20:56;;;;;;;26.38;14.80;;;;;;;8.91;100.00;102195.69;4868081;29;20481;-70
2021/10/09 07:23:42;;;;;;;32.47;15.35;;;;;;;8.70;100.00;102184.94;4881220;29;20069;-70
2021/10/09 07:26:28;;;;;;;30.33;14.65;;;;;;;8.67;100.00;102189.25;4881860;29;20020;-70
2021/10/09 07:29:13;;;;;;;30.35;15.55;;;;;;;8.88;100.00;102192.16;4881351;29;20033;-70
2021/10/09 07:31:59;;;;;;;28.05;14.80;;;;;;;9.02;100.00;102185.34;4881577;29;20033;-70
2021/10/09 07:34:45;;;;;;;28.85;14.85;;;;;;;9.20;100.00;102185.56;4880964;29;20089;-70
2021/10/09 07:37:31;;;;;;;33.63;15.02;;;;;;;9.17;100.00;102185.53;4881442;29;20040;-70
2021/10/09 07:40:18;;;;;;;31.50;15.15;;;;;;;9.35;100.00;102181.38;4867822;29;20039;-71
2021/10/09 07:43:04;;;;;;;32.47;14.48;;;;;;;9.30;100.00;102175.25;4882005;29;20348;-71
2021/10/09 07:45:50;;;;;;;28.65;14.80;;;;;;;9.22;100.00;102173.38;4867995;29;20519;-71
2021/10/09 07:48:36;;;;;;;31.73;13.95;;;;;;;9.11;100.00;102181.13;4881743;29;20033;-71
2021/10/09 07:51:22;;;;;;;26.73;14.35;;;;;;;9.48;100.00;102171.91;4881531;29;20438;-71
2021/10/09 07:54:08;;;;;;;26.75;13.18;;;;;;;9.53;100.00;102165.00;4881304;29;20418;-71
2021/10/09 07:56:53;;;;;;;26.90;14.15;;;;;;;9.80;100.00;102175.72;4867939;29;20033;-71
2021/10/09 07:59:39;;;;;;;31.30;14.90;;;;;;;10.07;100.00;102173.38;4881468;29;20491;-70
2021/10/09 08:02:25;;;;;;;31.15;14.63;;;;;;;9.64;100.00;102168.59;4880383;29;20044;-70
2021/10/09 08:05:11;;;;;;;22.40;13.13;;;;;;;9.69;100.00;102166.91;4881218;29;20124;-70
2021/10/09 08:08:00;;;;;;;25.67;14.02;;;;;;;9.87;100.00;102172.28;4867467;29;20482;-71
2021/10/09 08:10:47;;;;;;;26.55;14.20;;;;;;;10.07;100.00;102178.59;4881187;29;20029;-70
2021/10/09 08:13:35;;;;;;;30.48;14.73;;;;;;;10.33;100.00;102174.41;4867520;29;20029;-70
2021/10/09 08:16:21;;;;;;;25.77;14.35;;;;;;;10.30;100.00;102169.19;4880847;29;20056;-71
2021/10/09 08:19:07;;;;;;;26.05;14.05;;;;;;;10.43;100.00;102163.13;4881214;29;20036;-71
2021/10/09 08:21:54;;;;;;;25.88;14.05;;;;;;;10.79;100.00;102170.31;4881575;29;20108;-70
2021/10/09 08:25:07;;;;;;;25.92;13.93;;;;;;;10.52;100.00;102162.34;4881235;29;20041;-71
2021/10/09 08:37:21;;;;;;;27.83;14.38;;;;;;;10.99;100.00;102169.53;4880452;29;20026;-72
2021/10/09 08:40:02;;;;;;;22.80;13.15;;;;;;;10.91;100.00;102178.25;4883086;29;20037;-70
2021/10/09 08:42:48;;;;;;;29.30;13.52;;;;;;;11.09;100.00;102171.31;4884562;29;20029;-71
2021/10/09 08:45:34;;;;;;;30.15;14.52;;;;;;;10.76;100.00;102165.94;4870782;29;20036;-71
2021/10/09 08:48:26;;;;;;;29.42;14.98;;;;;;;11.32;100.00;102176.63;4870485;29;20033;-70
2021/10/09 08:51:12;;;;;;;26.00;14.25;;;;;;;11.24;100.00;102180.97;4883694;29;20466;-71
2021/10/09 08:54:08;;;;;;;29.05;13.10;;;;;;;10.55;100.00;102180.66;4870957;29;20025;-71
2021/10/09 08:56:54;;;;;;;24.27;12.77;;;;;;;11.08;100.00;102176.56;4883813;29;20040;-71
2021/10/09 08:59:53;;;;;;;27.70;12.25;;;;;;;10.65;100.00;102170.25;4884524;29;20042;-72
2021/10/09 09:02:52;;;;;;;24.23;12.35;;;;;;;10.63;100.00;102177.25;4884150;29;20040;-70
2021/10/09 09:06:08;;;;;;;28.33;12.52;;;;;;;10.67;100.00;102173.75;4871037;29;20037;-71
2021/10/09 09:09:19;;;;;;;29.10;12.95;;;;;;;11.05;100.00;102180.03;4882328;29;20044;-70
2021/10/09 09:30:32;;;;;;;24.48;12.00;;;;;;;10.84;100.00;102179.09;4882327;29;20450;-71
2021/10/09 09:40:13;;;;;;;27.45;12.32;;;;;;;11.16;100.00;102178.34;4861810;29;20120;-71
2021/10/09 09:43:00;;;;;;;27.90;12.55;;;;;;;10.76;100.00;102173.81;4882314;29;20419;-71
2021/10/09 09:45:46;;;;;;;29.13;12.65;;;;;;;10.80;100.00;102182.56;4882531;29;20375;-71
2021/10/09 09:48:32;;;;;;;27.92;12.57;;;;;;;10.83;100.00;102177.31;4881877;29;20111;-69
2021/10/09 09:51:22;;;;;;;22.58;12.32;;;;;;;10.84;100.00;102179.09;4881868;29;20029;-71
2021/10/09 09:54:08;;;;;;;26.27;12.93;;;;;;;11.01;100.00;102180.03;4881705;29;20089;-71
2021/10/09 09:56:59;;;;;;;25.13;12.88;;;;;;;11.12;100.00;102178.31;4881910;29;20455;-71
2021/10/09 09:59:46;;;;;;;28.30;13.35;;;;;;;11.26;100.00;102181.88;4869139;29;20059;-71
2021/10/09 10:02:37;;;;;;;29.83;12.35;;;;;;;11.69;100.00;102187.25;4881983;29;20471;-70
2021/10/09 10:05:26;;;;;;;28.20;12.80;;;;;;;11.50;100.00;102184.56;4869333;29;20418;-71
2021/10/09 10:08:20;;;;;;;20.70;12.18;;;;;;;11.97;100.00;102186.41;5071780;28;20387;-72
2021/10/09 10:11:06;;;;;;;26.98;12.27;;;;;;;12.02;100.00;102194.28;5071526;28;20040;-71
2021/10/09 10:13:56;;;;;;;27.20;12.93;;;;;;;11.67;100.00;102185.50;5071071;28;20035;-70
2021/10/09 10:16:46;;;;;;;23.15;12.77;;;;;;;12.03;100.00;102188.16;5072037;28;20028;-72
2021/10/09 10:19:50;;;;;;;28.65;12.63;;;;;;;11.92;100.00;102180.28;5070706;28;20060;-70
2021/10/09 10:22:36;;;;;;;24.17;12.77;;;;;;;11.96;100.00;102182.03;5070818;28;20031;-70
2021/10/09 10:25:22;;;;;;;23.13;12.40;;;;;;;11.66;100.00;102186.38;5070807;28;20036;-72
2021/10/09 10:28:19;;;;;;;26.55;12.05;;;;;;;11.40;100.00;102191.53;5071203;28;20028;-71
2021/10/09 10:31:05;;;;;;;26.13;11.75;;;;;;;11.36;100.00;102191.50;5070497;28;20028;-70
2021/10/09 10:33:58;;;;;;;24.83;12.32;;;;;;;11.64;100.00;102185.47;5070277;28;20051;-71
2021/10/09 10:36:45;;;;;;;25.90;12.32;;;;;;;11.74;100.00;102189.91;5070581;28;20028;-70
2021/10/09 10:39:39;;;;;;;23.13;12.60;;;;;;;11.94;100.00;102183.75;5070966;28;20119;-71
2021/10/09 10:42:28;;;;;;;27.08;12.63;;;;;;;12.34;100.00;102190.75;5070718;28;20024;-70
2021/10/09 10:45:34;;;;;;;29.88;13.30;;;;;;;12.13;100.00;102189.91;5072309;28;20039;-72
2021/10/09 10:48:45;;;;;;;24.02;13.65;;;;;;;12.60;100.00;102193.34;5070436;28;20459;-72
2021/10/09 10:57:14;;;;;;;27.02;12.85;;;;;;;11.72;100.00;102212.63;5070811;28;20017;-72
2021/10/09 11:00:12;;;;;;;31.05;13.32;;;;;;;12.07;100.00;102198.66;5070105;28;20035;-71
2021/10/09 11:02:59;;;;;;;24.58;13.00;;;;;;;12.00;100.00;102202.16;5071399;28;20056;-70
2021/10/09 11:05:45;;;;;;;27.48;13.52;;;;;;;12.16;100.00;102198.66;5070413;28;20028;-70
2021/10/09 11:08:31;;;;;;;27.25;12.80;;;;;;;12.25;100.00;102206.53;5071393;28;20410;-72
2021/10/09 11:11:33;;;;;;;30.98;13.02;;;;;;;12.22;100.00;102196.00;5070221;28;20045;-70
2021/10/09 11:14:23;;;;;;;31.48;12.98;;;;;;;12.24;100.00;102196.00;5070506;28;20339;-71
2021/10/09 11:17:09;;;;;;;24.27;12.27;;;;;;;12.35;100.00;102187.25;5071216;28;20020;-70
2021/10/09 11:19:54;;;;;;;21.98;12.13;;;;;;;12.39;100.00;102182.88;5057186;28;20108;-70
2021/10/09 11:22:47;;;;;;;26.15;13.30;;;;;;;12.68;100.00;102186.31;5057119;28;20049;-70
2021/10/09 11:25:35;;;;;;;28.65;13.65;;;;;;;12.56;100.00;102186.34;5057649;28;20042;-70
2021/10/09 11:28:25;;;;;;;32.53;12.90;;;;;;;12.13;100.00;102197.78;5056587;28;20029;-70
2021/10/09 11:31:25;;;;;;;26.95;12.20;;;;;;;12.18;100.00;102193.41;5056160;28;20533;-71
2021/10/09 11:34:10;;;;;;;23.52;11.35;;;;;;;12.31;100.00;102185.53;5056843;28;20029;-70
2021/10/09 11:36:56;;;;;;;27.45;12.00;;;;;;;12.45;100.00;102177.59;5056281;28;20100;-71
2021/10/09 11:39:50;;;;;;;27.55;12.05;;;;;;;12.43;100.00;102184.63;5056582;28;20031;-71
2021/10/09 11:42:54;;;;;;;28.27;12.32;;;;;;;12.79;100.00;102181.91;5057279;28;20044;-70
2021/10/09 11:57:45;;;;;;;27.50;12.73;;;;;;;12.55;100.00;102181.97;5056484;28;20373;-70
2021/10/09 12:00:34;;;;;;;29.63;12.75;;;;;;;12.47;100.00;102175.84;5056893;28;20025;-70
2021/10/09 12:03:26;;;;;;;22.48;12.68;;;;;;;12.74;100.00;102181.03;5056316;28;20189;-71
2021/10/09 12:06:12;;;;;;;29.10;13.48;;;;;;;12.38;100.00;102176.72;5055871;28;20049;-72
2021/10/09 12:09:00;;;;;;;28.38;12.52;;;;;;;12.21;100.00;102175.00;5055962;28;20120;-73
2021/10/09 12:11:45;;;;;;;27.25;12.73;;;;;;;12.26;100.00;102184.63;5055824;28;20028;-72
2021/10/09 12:14:32;;;;;;;32.72;12.90;;;;;;;12.26;100.00;102181.13;5055679;28;20025;-72
2021/10/09 12:17:21;;;;;;;27.77;13.20;;;;;;;12.14;100.00;102174.13;5056970;28;20028;-73
2021/10/09 12:20:10;;;;;;;24.60;13.43;;;;;;;12.19;100.00;102169.75;5055974;28;20458;-74
2021/10/09 12:22:57;;;;;;;25.13;12.75;;;;;;;12.54;100.00;102167.06;5055678;28;20047;-71
2021/10/09 12:25:43;;;;;;;31.27;12.57;;;;;;;12.43;100.00;102176.72;5056261;28;20055;-71
2021/10/09 12:28:29;;;;;;;29.92;12.98;;;;;;;12.27;100.00;102159.22;5055429;28;20035;-72
2021/10/09 12:31:32;;;;;;;25.92;13.18;;;;;;;12.33;100.00;102165.34;5055430;28;20037;-69
2021/10/09 12:34:35;;;;;;;30.90;13.82;;;;;;;12.12;100.00;102175.00;5055440;28;20449;-72
2021/10/09 12:37:27;;;;;;;25.27;12.68;;;;;;;12.23;100.00;102176.75;5056342;28;20056;-72
2021/10/09 12:40:18;;;;;;;25.50;12.80;;;;;;;12.32;100.00;102192.50;5054969;28;20032;-72
2021/10/09 12:43:10;;;;;;;29.23;12.82;;;;;;;12.35;100.00;102194.25;5056381;28;20052;-70
2021/10/09 12:45:56;;;;;;;27.88;12.07;;;;;;;12.59;100.00;102181.97;5056876;28;20036;-71
2021/10/09 12:48:42;;;;;;;23.90;11.80;;;;;;;12.76;100.00;102185.41;5054528;28;20029;-73
2021/10/09 12:51:27;;;;;;;28.58;12.30;;;;;;;12.57;100.00;102181.06;5054366;28;20047;-73
2021/10/09 12:54:17;;;;;;;22.88;11.70;;;;;;;12.24;100.00;102172.38;5054848;28;20354;-72
2021/10/09 12:57:06;;;;;;;31.13;11.93;;;;;;;12.59;100.00;102176.72;5055277;28;20115;-71
2021/10/09 12:59:52;;;;;;;26.25;11.88;;;;;;;12.57;100.00;102183.69;5054356;28;20107;-72
2021/10/09 13:02:38;;;;;;;26.30;12.02;;;;;;;12.77;100.00;102179.25;5056134;28;20080;-74
2021/10/09 13:05:26;;;;;;;30.60;14.65;;;;;;;12.67;100.00;102171.41;5054733;28;20036;-70
2021/10/09 13:08:12;;;;;;;26.73;11.40;;;;;;;12.62;100.00;102171.41;5054357;28;20440;-73
2021/10/09 13:10:59;;;;;;;27.02;11.32;;;;;;;12.61;100.00;102169.66;5055140;28;20416;-71
2021/10/09 13:13:45;;;;;;;29.20;12.23;;;;;;;12.36;100.00;102173.25;5055040;28;20025;-76
2021/10/09 13:16:31;;;;;;;26.38;11.93;;;;;;;12.59;100.00;102174.06;5055154;28;20028;-74
2021/10/09 13:19:17;;;;;;;28.20;11.00;;;;;;;12.39;100.00;102161.84;5055565;28;20025;-74
2021/10/09 13:22:03;;;;;;;29.02;16.30;;;;;;;12.62;100.00;102171.41;5055704;28;20028;-71
2021/10/09 13:24:49;;;;;;;25.65;10.13;;;;;;;12.54;100.00;102167.94;5054435;28;20090;-70
2021/10/09 13:27:35;;;;;;;19.88;10.27;;;;;;;12.57;100.00;102170.56;5054205;28;20432;-73
2021/10/09 13:30:21;;;;;;;21.13;10.00;;;;;;;12.28;100.00;102177.63;5054458;28;20029;-72
2021/10/09 13:33:07;;;;;;;26.08;10.18;;;;;;;12.61;100.00;102177.56;5054395;28;20339;-72
2021/10/09 13:35:53;;;;;;;23.83;10.13;;;;;;;12.61;100.00;102174.94;5053950;28;20412;-73
2021/10/09 13:38:39;;;;;;;27.73;10.25;;;;;;;12.35;100.00;102176.75;5054379;28;20017;-72
2021/10/09 13:41:25;;;;;;;23.15;10.25;;;;;;;12.53;100.00;102181.97;5054353;28;20112;-73
2021/10/09 13:44:11;;;;;;;28.05;10.63;;;;;;;12.46;100.00;102174.97;5055118;28;20043;-72
2021/10/09 13:46:56;;;;;;;25.63;9.73;;;;;;;12.37;100.00;102190.75;5055204;28;20029;-71
2021/10/09 13:49:42;;;;;;;23.02;9.40;;;;;;;12.40;100.00;102184.59;5053177;28;20457;-71
2021/10/09 13:52:28;;;;;;;21.90;10.93;;;;;;;12.45;100.00;102183.72;5079725;28;20102;-72
2021/10/09 13:55:13;;;;;;;25.92;10.52;;;;;;;12.60;100.00;102182.81;5094730;28;20380;-72
2021/10/09 13:57:59;;;;;;;25.95;10.98;;;;;;;12.69;100.00;102181.03;5093915;28;20397;-71
2021/10/09 14:00:46;;;;;;;19.65;10.70;;;;;;;12.64;100.00;102187.19;5094102;28;20028;-72
2021/10/09 14:03:34;;;;;;;29.40;11.48;;;;;;;12.87;100.00;102180.97;5093321;28;20038;-71
2021/10/09 14:06:20;;;;;;;24.50;11.15;;;;;;;12.76;100.00;102177.53;5094413;28;20112;-74
2021/10/09 14:09:06;;;;;;;23.90;11.27;;;;;;;12.47;100.00;102174.09;5093558;28;20035;-71
2021/10/09 14:11:53;;;;;;;25.23;11.52;;;;;;;12.58;100.00;102169.66;5094305;28;20035;-75
2021/10/09 14:14:40;;;;;;;24.48;11.20;;;;;;;12.40;100.00;102164.47;5093918;28;20032;-71
2021/10/09 14:17:28;;;;;;;27.73;12.05;;;;;;;12.58;100.00;102164.41;5093821;28;20031;-72
2021/10/09 14:20:14;;;;;;;22.60;10.95;;;;;;;12.94;100.00;102160.81;5078814;28;20027;-73
2021/10/09 14:23:02;;;;;;;23.65;10.98;;;;;;;12.69;100.00;102156.50;5094529;28;20035;-73
2021/10/09 14:25:49;;;;;;;27.40;11.05;;;;;;;12.41;100.00;102147.81;5079876;28;20028;-71
2021/10/09 14:28:35;;;;;;;26.60;12.43;;;;;;;12.32;100.00;102168.88;5094922;28;20055;-71
2021/10/09 14:31:23;;;;;;;28.13;10.10;;;;;;;12.22;100.00;102163.63;5093162;28;20028;-73
2021/10/09 14:34:09;;;;;;;20.73;10.23;;;;;;;12.04;100.00;102159.25;5079456;28;20024;-72
2021/10/09 14:36:55;;;;;;;23.08;10.82;;;;;;;12.14;100.00;102160.13;5094101;28;20039;-72
2021/10/09 14:39:43;;;;;;;25.67;10.77;;;;;;;12.49;100.00;102158.28;5094384;28;20031;-71
2021/10/09 14:42:29;;;;;;;25.20;10.45;;;;;;;12.75;100.00;102167.00;5094435;28;20516;-71
2021/10/09 14:45:17;;;;;;;25.52;11.05;;;;;;;12.65;100.00;102171.41;5080017;28;20028;-71
2021/10/09 15:18:13;;;;;;;27.15;10.77;;;;;;;12.77;100.00;102181.91;5097552;28;20020;-71